createdAt,value
2019-03-04T00:01:10.690Z,4.57
2019-03-04T00:03:39.738Z,6.97
2019-03-04T00:06:08.758Z,7.80
2019-03-04T00:08:37.651Z,4.43
2019-03-04T00:11:06.728Z,5.23
2019-03-04T00:13:35.623Z,4.43
2019-03-04T00:16:04.719Z,4.40
2019-03-04T00:18:33.761Z,6.63
2019-03-04T00:21:02.818Z,4.83
2019-03-04T00:23:31.323Z,4.77
2019-03-04T00:26:00.687Z,4.33
2019-03-04T00:28:29.727Z,3.70
2019-03-04T00:30:59.043Z,3.77
2019-03-04T00:33:28.311Z,3.70
2019-03-04T00:35:57.264Z,6.23
2019-03-04T00:38:26.283Z,5.77
2019-03-04T00:40:55.240Z,5.60
2019-03-04T00:43:23.823Z,5.70
2019-03-04T00:45:52.799Z,5.03
2019-03-04T00:48:21.868Z,5.47
2019-03-04T00:50:50.839Z,4.63
2019-03-04T00:53:19.772Z,3.87
2019-03-04T00:55:49.023Z,5.03
2019-03-04T00:58:18.061Z,5.37
2019-03-04T01:00:47.023Z,3.57
2019-03-04T01:03:16.079Z,5.17
2019-03-04T01:05:44.996Z,6.07
2019-03-04T01:08:13.971Z,7.00
2019-03-04T01:10:43.111Z,5.87
2019-03-04T01:13:12.148Z,4.03
2019-03-04T01:15:41.215Z,5.37
2019-03-04T01:18:10.263Z,6.63
2019-03-04T01:20:39.212Z,5.20
2019-03-04T01:23:08.166Z,8.00
2019-03-04T01:25:37.148Z,7.40
2019-03-04T01:28:06.387Z,4.67
2019-03-04T01:30:35.439Z,4.67
2019-03-04T01:33:05.143Z,5.37
2019-03-04T01:35:34.201Z,5.73
2019-03-04T01:38:03.287Z,4.13
2019-03-04T01:40:32.268Z,8.63
2019-03-04T01:43:01.258Z,4.93
2019-03-04T01:45:30.407Z,6.17
2019-03-04T01:47:59.435Z,6.63
2019-03-04T01:50:28.311Z,3.57
2019-03-04T01:52:57.384Z,4.10
2019-03-04T01:55:26.336Z,5.07
2019-03-04T01:57:55.304Z,6.10
2019-03-04T02:00:24.373Z,5.93
2019-03-04T02:02:53.416Z,4.80
2019-03-04T02:05:22.492Z,5.60
2019-03-04T02:07:51.452Z,3.87
2019-03-04T02:10:20.800Z,6.43
2019-03-04T02:12:49.960Z,3.77
2019-03-04T02:15:19.460Z,6.80
2019-03-04T02:17:48.601Z,7.50
2019-03-04T02:20:18.912Z,5.70
2019-03-04T02:22:48.051Z,5.90
2019-03-04T02:25:18.124Z,9.20
2019-03-04T02:27:50.260Z,4.87
2019-03-04T02:30:25.330Z,5.07
2019-03-04T02:32:54.468Z,3.53
2019-03-04T02:35:23.578Z,7.17
2019-03-04T02:37:53.046Z,6.90
2019-03-04T02:40:22.014Z,5.37
2019-03-04T02:42:51.052Z,5.63
2019-03-04T02:45:20.233Z,5.13
2019-03-04T02:47:49.258Z,4.10
2019-03-04T02:50:18.347Z,3.87
2019-03-04T02:52:47.749Z,2.90
2019-03-04T02:55:17.167Z,5.20
2019-03-04T02:57:46.209Z,5.00
2019-03-04T03:00:16.425Z,4.80
2019-03-04T03:02:45.320Z,5.03
2019-03-04T03:05:14.470Z,6.50
2019-03-04T03:07:43.541Z,6.00
2019-03-04T03:10:12.782Z,3.77
2019-03-04T03:12:41.762Z,4.00
2019-03-04T03:15:11.214Z,3.27
2019-03-04T03:17:40.302Z,4.47
2019-03-04T03:20:10.075Z,3.80
2019-03-04T03:22:39.402Z,2.53
2019-03-04T03:25:08.679Z,3.30
2019-03-04T03:27:37.552Z,1.93
2019-03-04T03:30:07.896Z,2.43
2019-03-04T03:32:36.883Z,2.40
2019-03-04T03:35:08.325Z,2.10
2019-03-04T03:37:37.849Z,3.17
2019-03-04T03:40:08.434Z,1.93
2019-03-04T03:42:37.442Z,2.87
2019-03-04T03:45:07.003Z,3.63
2019-03-04T03:47:36.039Z,1.70
2019-03-04T03:50:06.218Z,4.43
2019-03-04T03:52:35.186Z,6.23
2019-03-04T03:55:05.087Z,2.77
2019-03-04T03:57:34.139Z,3.00
2019-03-04T04:00:03.197Z,4.10
2019-03-04T04:02:32.395Z,4.93
2019-03-04T04:05:01.651Z,3.47
2019-03-04T04:07:30.703Z,2.50
2019-03-04T04:09:59.694Z,2.07
2019-03-04T04:12:28.723Z,3.70
2019-03-04T04:14:57.984Z,2.63
2019-03-04T04:17:26.946Z,2.40
2019-03-04T04:19:55.843Z,2.87
2019-03-04T04:22:24.883Z,1.50
2019-03-04T04:24:54.239Z,2.10
2019-03-04T04:27:23.291Z,5.30
2019-03-04T04:29:52.513Z,1.77
2019-03-04T04:32:21.465Z,1.30
2019-03-04T04:34:50.501Z,2.00
2019-03-04T04:37:19.458Z,2.23
2019-03-04T04:39:48.362Z,1.10
2019-03-04T04:42:17.276Z,1.50
2019-03-04T04:44:46.375Z,1.90
2019-03-04T04:47:15.411Z,1.53
2019-03-04T04:49:44.487Z,1.60
2019-03-04T04:52:13.787Z,2.70
2019-03-04T04:54:42.755Z,4.03
2019-03-04T04:57:11.727Z,2.00
2019-03-04T04:59:40.691Z,1.57
2019-03-04T05:02:09.682Z,3.37
2019-03-04T05:04:38.739Z,1.83
2019-03-04T05:07:07.707Z,2.90
2019-03-04T05:09:36.708Z,2.30
2019-03-04T05:12:05.700Z,3.77
2019-03-04T05:14:34.872Z,5.77
2019-03-04T05:17:04.211Z,4.80
2019-03-04T05:19:33.087Z,6.47
2019-03-04T05:22:02.148Z,4.87
2019-03-04T05:24:31.412Z,3.90
2019-03-04T05:27:00.396Z,4.13
2019-03-04T05:29:29.376Z,5.67
2019-03-04T05:31:58.428Z,2.43
2019-03-04T05:34:27.592Z,4.53
2019-03-04T05:36:56.828Z,4.13
2019-03-04T05:39:26.204Z,5.83
2019-03-04T05:41:55.168Z,3.20
2019-03-04T05:44:24.360Z,2.50
2019-03-04T05:46:53.316Z,2.20
2019-03-04T05:49:22.218Z,3.53
2019-03-04T05:51:51.305Z,3.67
2019-03-04T05:54:21.026Z,1.67
2019-03-04T05:56:49.976Z,3.37
2019-03-04T05:59:20.046Z,2.47
2019-03-04T06:02:03.540Z,1.93
2019-03-04T06:04:32.756Z,2.97
2019-03-04T06:07:07.824Z,1.53
2019-03-04T06:09:36.881Z,1.93
2019-03-04T06:12:05.920Z,3.90
2019-03-04T06:14:34.953Z,4.80
2019-03-04T06:17:03.980Z,2.87
2019-03-04T06:19:33.028Z,3.37
2019-03-04T06:22:01.993Z,3.30
2019-03-04T06:24:30.876Z,4.00
2019-03-04T06:27:00.157Z,1.70
2019-03-04T06:29:29.057Z,2.53
2019-03-04T06:31:58.085Z,3.57
2019-03-04T06:34:27.125Z,3.77
2019-03-04T06:36:56.181Z,1.33
2019-03-04T06:39:25.061Z,2.47
2019-03-04T06:41:53.949Z,1.97
2019-03-04T06:44:23.165Z,3.97
2019-03-04T06:46:52.146Z,2.43
2019-03-04T06:49:21.105Z,4.13
2019-03-04T06:51:51.033Z,2.63
2019-03-04T06:55:01.360Z,2.83
2019-03-04T06:57:36.257Z,1.70
2019-03-04T07:00:51.850Z,2.00
2019-03-04T07:03:42.326Z,2.20
2019-03-04T07:06:11.369Z,1.70
2019-03-04T07:09:07.425Z,1.53
2019-03-04T07:11:36.793Z,1.00
2019-03-04T07:14:06.273Z,0.90
2019-03-04T07:16:35.325Z,1.27
2019-03-04T07:19:06.937Z,1.13
2019-03-04T07:21:36.021Z,0.70
2019-03-04T07:24:05.253Z,1.07
2019-03-04T07:26:35.013Z,0.63
2019-03-04T07:29:04.152Z,0.60
2019-03-04T07:31:33.469Z,1.37
2019-03-04T07:34:02.524Z,1.13
2019-03-04T07:36:31.488Z,1.77
2019-03-04T07:39:16.612Z,0.83
2019-03-04T07:41:47.404Z,1.97
2019-03-04T07:44:16.440Z,2.77
2019-03-04T07:46:45.564Z,4.10
2019-03-04T07:49:14.538Z,2.13
2019-03-04T07:51:43.644Z,3.03
2019-03-04T07:54:13.558Z,0.97
2019-03-04T07:56:43.498Z,3.80
2019-03-04T07:59:13.042Z,2.10
2019-03-04T08:01:42.078Z,1.17
2019-03-04T08:04:11.197Z,2.20
2019-03-04T08:06:39.825Z,1.90
2019-03-04T08:09:49.519Z,0.50
2019-03-04T08:12:57.834Z,2.53
2019-03-04T08:15:30.046Z,2.23
2019-03-04T08:17:58.930Z,1.77
2019-03-04T08:20:28.010Z,2.93
2019-03-04T08:22:56.910Z,1.20
2019-03-04T08:25:25.954Z,1.30
2019-03-04T08:27:55.136Z,1.77
2019-03-04T08:30:24.350Z,2.30
2019-03-04T08:32:53.311Z,1.47
2019-03-04T08:35:22.340Z,1.90
2019-03-04T08:37:51.387Z,2.10
2019-03-04T08:40:20.343Z,2.13
2019-03-04T08:42:49.306Z,1.00
2019-03-04T08:45:19.746Z,1.10
2019-03-04T08:47:49.123Z,1.77
2019-03-04T08:50:18.436Z,1.53
2019-03-04T08:52:47.511Z,3.23
2019-03-04T08:55:17.032Z,4.20
2019-03-04T08:57:46.100Z,1.93
2019-03-04T09:00:17.867Z,2.30
2019-03-04T09:02:47.507Z,2.53
2019-03-04T09:05:18.003Z,2.93
2019-03-04T09:07:47.192Z,2.87
2019-03-04T09:10:24.294Z,4.87
2019-03-04T09:12:53.430Z,4.97
2019-03-04T09:15:22.571Z,3.17
2019-03-04T09:17:51.631Z,2.87
2019-03-04T09:20:21.904Z,4.50
2019-03-04T09:22:51.047Z,16.43
2019-03-04T09:25:31.927Z,4.43
2019-03-04T09:28:01.222Z,5.57
2019-03-04T09:30:30.300Z,4.63
2019-03-04T09:32:59.427Z,3.07
2019-03-04T09:35:28.552Z,7.20
2019-03-04T09:37:57.726Z,5.47
2019-03-04T09:40:28.240Z,6.37
2019-03-04T09:42:57.329Z,6.50
2019-03-04T09:45:26.668Z,7.13
2019-03-04T09:47:55.705Z,5.97
2019-03-04T09:50:24.889Z,3.80
2019-03-04T09:52:54.289Z,7.80
2019-03-04T09:55:24.423Z,2.37
2019-03-04T09:57:53.548Z,4.53
2019-03-04T10:00:31.481Z,6.10
2019-03-04T10:03:37.728Z,6.60
2019-03-04T10:06:41.156Z,6.63
2019-03-04T10:09:48.183Z,6.97
2019-03-04T10:12:45.175Z,4.60
2019-03-04T10:15:45.920Z,4.53
2019-03-04T10:18:42.160Z,3.53
2019-03-04T10:21:50.003Z,5.27
2019-03-04T10:24:45.153Z,5.80
2019-03-04T10:27:44.137Z,6.27
2019-03-04T10:30:48.437Z,6.77
2019-03-04T10:33:55.741Z,5.80
2019-03-04T10:37:08.573Z,2.13
2019-03-04T10:40:15.682Z,3.70
2019-03-04T10:43:15.689Z,3.63
2019-03-04T10:46:07.905Z,4.83
2019-03-04T10:48:37.257Z,4.87
2019-03-04T10:51:06.279Z,3.93
2019-03-04T10:53:35.167Z,2.60
2019-03-04T10:56:03.609Z,1.73
2019-03-04T10:58:32.093Z,1.77
2019-03-04T11:01:00.597Z,2.23
2019-03-04T11:03:29.065Z,0.70
2019-03-04T11:05:57.493Z,0.60
2019-03-04T11:08:26.013Z,1.20
2019-03-04T11:10:54.494Z,3.50
2019-03-04T11:13:22.913Z,1.80
2019-03-04T11:15:51.393Z,2.10
2019-03-04T11:18:19.943Z,1.43
2019-03-04T11:20:48.430Z,1.03
2019-03-04T11:23:16.905Z,2.20
2019-03-04T11:25:45.393Z,1.03
2019-03-04T11:28:13.885Z,2.13
2019-03-04T11:30:42.458Z,0.90
2019-03-04T11:33:10.929Z,1.27
2019-03-04T11:35:39.590Z,1.53
2019-03-04T11:38:27.290Z,0.80
2019-03-04T11:40:55.798Z,1.23
2019-03-04T11:43:24.218Z,1.20
2019-03-04T11:45:52.694Z,1.07
2019-03-04T11:48:21.106Z,1.57
2019-03-04T11:50:49.585Z,1.90
2019-03-04T11:53:18.418Z,1.87
2019-03-04T11:55:46.914Z,1.13
2019-03-04T11:58:15.431Z,1.10
2019-03-04T12:00:49.227Z,1.20
2019-03-04T12:03:17.721Z,2.57
2019-03-04T12:05:46.211Z,1.60
2019-03-04T12:08:14.638Z,1.77
2019-03-04T12:10:43.118Z,1.60
2019-03-04T12:13:11.626Z,2.20
2019-03-04T12:15:40.108Z,1.90
2019-03-04T12:18:08.594Z,1.70
2019-03-04T12:20:37.078Z,1.77
2019-03-04T12:23:05.810Z,2.10
2019-03-04T12:25:34.215Z,2.97
2019-03-04T12:28:02.801Z,2.13
2019-03-04T12:30:31.343Z,2.07
2019-03-04T12:33:01.122Z,2.50
2019-03-04T12:35:29.539Z,3.07
2019-03-04T12:37:58.038Z,3.50
2019-03-04T12:40:26.550Z,2.93
2019-03-04T12:42:55.039Z,2.33
2019-03-04T12:45:33.690Z,3.80
2019-03-04T12:47:54.007Z,4.83
2019-03-04T12:50:23.364Z,2.83
2019-03-04T12:52:51.888Z,3.67
2019-03-04T12:55:20.407Z,3.90
2019-03-04T12:57:48.883Z,3.67
2019-03-04T13:00:18.655Z,3.60
2019-03-04T13:02:56.706Z,4.63
2019-03-04T13:05:17.363Z,3.27
2019-03-04T13:07:45.871Z,3.30
2019-03-04T13:10:14.386Z,3.17
2019-03-04T13:12:43.295Z,3.17
2019-03-04T13:15:13.175Z,3.30
2019-03-04T13:17:41.671Z,5.50
2019-03-04T13:20:10.931Z,4.73
2019-03-04T13:22:39.411Z,6.53
2019-03-04T13:25:08.123Z,3.10
2019-03-04T13:27:36.611Z,9.30
2019-03-04T13:30:05.599Z,4.10
2019-03-04T13:32:34.147Z,5.93
2019-03-04T13:35:02.580Z,6.27
2019-03-04T13:37:31.081Z,6.83
2019-03-04T13:40:00.055Z,5.37
2019-03-04T13:42:29.034Z,4.00
2019-03-04T13:44:58.120Z,5.70
2019-03-04T13:47:27.152Z,6.37
2019-03-04T13:49:56.200Z,5.77
2019-03-04T13:52:25.378Z,3.83
2019-03-04T13:54:54.824Z,6.13
2019-03-04T13:57:23.816Z,6.07
2019-03-04T13:59:52.892Z,5.13
2019-03-04T14:02:21.932Z,9.03
2019-03-04T14:04:50.976Z,7.67
2019-03-04T14:07:20.109Z,6.37
2019-03-04T14:09:49.148Z,7.07
2019-03-04T14:12:18.196Z,5.77
2019-03-04T14:14:47.248Z,5.70
2019-03-04T14:17:16.220Z,10.03
2019-03-04T14:19:45.347Z,9.83
2019-03-04T14:22:14.388Z,4.87
2019-03-04T14:24:44.008Z,10.90
2019-03-04T14:27:12.896Z,7.00
2019-03-04T14:29:41.789Z,7.70
2019-03-04T14:32:10.805Z,5.93
2019-03-04T14:34:39.776Z,10.87
2019-03-04T14:37:08.797Z,8.07
2019-03-04T14:39:37.892Z,10.57
2019-03-04T14:42:06.969Z,9.53
2019-03-04T14:44:36.260Z,10.23
2019-03-04T14:47:05.651Z,11.73
2019-03-04T14:49:44.251Z,7.30
2019-03-04T14:52:05.481Z,11.13
2019-03-04T14:54:34.513Z,10.13
2019-03-04T14:57:03.499Z,12.47
2019-03-04T14:59:32.473Z,7.30
2019-03-04T15:02:01.501Z,6.63
2019-03-04T15:04:30.589Z,10.10
2019-03-04T15:06:59.590Z,9.67
2019-03-04T15:09:28.549Z,12.77
2019-03-04T15:11:57.517Z,10.87
2019-03-04T15:14:26.620Z,8.60
2019-03-04T15:17:03.236Z,9.30
2019-03-04T15:19:26.958Z,9.57
2019-03-04T15:21:56.171Z,11.60
2019-03-04T15:24:25.142Z,6.67
2019-03-04T15:26:54.194Z,7.00
2019-03-04T15:29:23.226Z,9.30
2019-03-04T15:31:52.266Z,7.73
2019-03-04T15:34:21.257Z,11.10
2019-03-04T15:36:50.210Z,8.23
2019-03-04T15:39:23.039Z,8.30
2019-03-04T15:41:50.440Z,9.07
2019-03-04T15:44:19.510Z,8.80
2019-03-04T15:46:48.602Z,6.10
2019-03-04T15:49:20.506Z,8.50
2019-03-04T15:51:49.458Z,9.40
2019-03-04T15:54:18.508Z,8.63
2019-03-04T15:56:47.630Z,12.23
2019-03-04T15:59:16.650Z,7.00
2019-03-04T16:01:45.606Z,7.90
2019-03-04T16:04:14.646Z,11.63
2019-03-04T16:06:43.775Z,9.13
2019-03-04T16:09:16.066Z,7.60
2019-03-04T16:11:45.402Z,11.80
2019-03-04T16:14:14.807Z,6.73
2019-03-04T16:16:44.042Z,7.30
2019-03-04T16:19:13.547Z,7.60
2019-03-04T16:21:42.486Z,7.70
2019-03-04T16:24:11.826Z,7.50
2019-03-04T16:26:40.935Z,8.70
2019-03-04T16:29:09.995Z,8.07
2019-03-04T16:31:39.071Z,8.67
2019-03-04T16:34:08.108Z,4.50
2019-03-04T16:36:37.163Z,6.63
2019-03-04T16:39:07.250Z,11.07
2019-03-04T16:41:36.560Z,8.47
2019-03-04T16:44:05.574Z,6.10
2019-03-04T16:46:34.623Z,9.40
2019-03-04T16:49:03.628Z,8.03
2019-03-04T16:51:32.667Z,12.50
2019-03-04T16:54:04.504Z,8.63
2019-03-04T16:56:32.552Z,9.40
2019-03-04T16:59:01.123Z,13.37
2019-03-04T17:01:29.552Z,9.50
2019-03-04T17:03:58.044Z,7.13
2019-03-04T17:06:26.719Z,12.50
2019-03-04T17:08:55.215Z,8.43
2019-03-04T17:11:23.693Z,8.00
2019-03-04T17:13:52.180Z,7.33
2019-03-04T17:16:20.679Z,13.07
2019-03-04T17:18:49.120Z,4.27
2019-03-04T17:21:17.720Z,5.63
2019-03-04T17:23:46.258Z,11.27
2019-03-04T17:26:14.756Z,9.47
2019-03-04T17:28:43.400Z,8.87
2019-03-04T17:31:12.364Z,6.33
2019-03-04T17:33:41.512Z,6.60
2019-03-04T17:36:10.580Z,8.40
2019-03-04T17:38:39.092Z,6.10
2019-03-04T17:41:07.596Z,8.63
2019-03-04T17:43:35.996Z,6.90
2019-03-04T17:46:04.588Z,8.07
2019-03-04T17:48:33.076Z,10.00
2019-03-04T17:51:01.584Z,9.50
2019-03-04T17:53:30.380Z,7.07
2019-03-04T17:55:58.820Z,8.67
2019-03-04T17:58:27.620Z,7.73
2019-03-04T18:00:56.195Z,5.70
2019-03-04T18:03:24.712Z,7.87
2019-03-04T18:05:53.349Z,9.57
2019-03-04T18:08:21.876Z,4.30
2019-03-04T18:10:50.397Z,7.67
2019-03-04T18:13:19.192Z,7.77
2019-03-04T18:15:47.789Z,10.17
2019-03-04T18:18:16.260Z,7.20
2019-03-04T18:20:44.845Z,8.43
2019-03-04T18:23:13.369Z,7.30
2019-03-04T18:25:43.058Z,7.57
2019-03-04T18:28:13.937Z,7.23
2019-03-04T18:30:53.181Z,6.80
2019-03-04T18:33:39.797Z,8.40
2019-03-04T18:36:17.393Z,7.13
2019-03-04T18:39:10.877Z,6.13
2019-03-04T18:42:01.358Z,8.23
2019-03-04T18:44:41.059Z,9.50
2019-03-04T18:47:13.961Z,6.20
2019-03-04T18:49:42.749Z,9.13
2019-03-04T18:52:11.153Z,6.87
2019-03-04T18:54:39.678Z,7.23
2019-03-04T18:57:08.237Z,7.40
2019-03-04T18:59:37.121Z,4.80
2019-03-04T19:02:06.085Z,7.30
2019-03-04T19:04:37.357Z,6.00
2019-03-04T19:07:05.946Z,6.17
2019-03-04T19:09:37.711Z,8.70
2019-03-04T19:12:07.010Z,6.00
2019-03-04T19:14:35.518Z,4.80
2019-03-04T19:17:04.398Z,8.07
2019-03-04T19:19:32.952Z,7.90
2019-03-04T19:22:01.526Z,5.73
2019-03-04T19:24:30.029Z,6.13
2019-03-04T19:26:58.641Z,8.07
2019-03-04T19:29:27.146Z,5.20
2019-03-04T19:31:56.219Z,6.33
2019-03-04T19:34:24.702Z,5.53
2019-03-04T19:36:53.182Z,7.27
2019-03-04T19:39:21.678Z,4.80
2019-03-04T19:41:50.915Z,6.93
2019-03-04T19:44:19.480Z,5.43
2019-03-04T19:46:48.371Z,6.50
2019-03-04T19:49:16.954Z,8.27
2019-03-04T19:51:46.082Z,5.10
2019-03-04T19:54:14.939Z,6.20
2019-03-04T19:56:43.444Z,7.70
2019-03-04T19:59:11.871Z,3.80
2019-03-04T20:01:40.348Z,10.53
2019-03-04T20:04:08.836Z,7.03
2019-03-04T20:06:37.343Z,5.37
2019-03-04T20:09:06.646Z,6.67
2019-03-04T20:11:35.146Z,3.57
2019-03-04T20:14:03.665Z,10.90
2019-03-04T20:16:32.226Z,5.80
2019-03-04T20:19:00.710Z,5.30
2019-03-04T20:21:29.138Z,4.83
2019-03-04T20:23:57.726Z,5.57
2019-03-04T20:26:26.329Z,5.17
2019-03-04T20:28:54.739Z,6.50
2019-03-04T20:31:23.322Z,6.10
2019-03-04T20:33:51.755Z,4.47
2019-03-04T20:36:20.238Z,7.33
2019-03-04T20:38:49.133Z,4.97
2019-03-04T20:41:17.723Z,7.47
2019-03-04T20:43:46.131Z,5.30
2019-03-04T20:46:14.723Z,8.53
2019-03-04T20:48:43.208Z,7.30
2019-03-04T20:51:11.704Z,7.67
2019-03-04T20:53:40.516Z,7.27
2019-03-04T20:56:09.037Z,3.23
2019-03-04T20:58:37.540Z,4.07
2019-03-04T21:01:06.036Z,4.70
2019-03-04T21:03:35.287Z,5.20
2019-03-04T21:06:04.159Z,9.90
2019-03-04T21:08:32.687Z,9.53
2019-03-04T21:11:01.189Z,7.37
2019-03-04T21:13:35.774Z,6.97
2019-03-04T21:16:00.341Z,4.67
2019-03-04T21:18:28.832Z,6.73
2019-03-04T21:20:58.019Z,6.70
2019-03-04T21:23:26.659Z,6.07
2019-03-04T21:25:56.937Z,5.03
2019-03-04T21:28:33.623Z,6.40
2019-03-04T21:31:24.071Z,4.77
2019-03-04T21:33:56.104Z,6.17
2019-03-04T21:36:31.817Z,5.63
2019-03-04T21:39:00.347Z,4.63
2019-03-04T21:41:30.831Z,6.70
2019-03-04T21:44:09.241Z,8.03
2019-03-04T21:46:43.223Z,7.67
2019-03-04T21:49:12.665Z,7.90
2019-03-04T21:51:53.487Z,6.77
2019-03-04T21:54:22.003Z,5.97
2019-03-04T21:56:58.808Z,5.90
2019-03-04T21:59:27.368Z,7.07
2019-03-04T22:01:58.201Z,4.37
2019-03-04T22:04:26.742Z,5.10
2019-03-04T22:06:55.299Z,5.03
2019-03-04T22:09:25.145Z,7.20
2019-03-04T22:11:53.555Z,6.60
2019-03-04T22:14:22.389Z,5.70
2019-03-04T22:16:51.049Z,5.30
2019-03-04T22:19:19.580Z,5.23
2019-03-04T22:21:48.295Z,4.30
2019-03-04T22:24:16.884Z,5.30
2019-03-04T22:26:45.463Z,4.20
2019-03-04T22:29:13.902Z,6.07
2019-03-04T22:31:42.435Z,4.70
2019-03-04T22:34:11.236Z,5.20
2019-03-04T22:36:39.783Z,7.37
2019-03-04T22:39:08.392Z,5.63
2019-03-04T22:41:36.793Z,7.27
2019-03-04T22:44:05.414Z,5.23
2019-03-04T22:46:34.008Z,5.90
2019-03-04T22:49:02.494Z,6.50
2019-03-04T22:51:31.158Z,6.83
2019-03-04T22:53:59.771Z,6.97
2019-03-04T22:56:28.309Z,6.00
2019-03-04T22:58:56.717Z,11.03
2019-03-04T23:01:30.149Z,8.70
2019-03-04T23:04:01.269Z,6.20
2019-03-04T23:06:30.248Z,7.30
2019-03-04T23:08:58.712Z,6.73
2019-03-04T23:11:28.740Z,7.93
2019-03-04T23:13:59.153Z,7.07
2019-03-04T23:16:28.924Z,5.60
2019-03-04T23:18:57.392Z,6.90
2019-03-04T23:21:25.861Z,9.03
2019-03-04T23:23:54.817Z,7.57
2019-03-04T23:26:23.392Z,6.80
2019-03-04T23:28:51.885Z,7.50
2019-03-04T23:31:20.417Z,8.93
2019-03-04T23:33:48.902Z,8.67
2019-03-04T23:36:17.737Z,7.43
2019-03-04T23:38:46.221Z,10.23
2019-03-04T23:41:14.702Z,6.93
2019-03-04T23:43:43.246Z,12.03
2019-03-04T23:46:11.765Z,10.10
2019-03-04T23:48:40.281Z,9.40
2019-03-04T23:51:08.841Z,10.00
2019-03-04T23:53:37.321Z,9.13
2019-03-04T23:56:06.009Z,6.63
2019-03-04T23:58:34.547Z,5.43
